createdAt,value
2018-11-22T12:17:40.642Z,63.97
2018-11-22T12:20:10.453Z,55.90
2018-11-22T12:22:40.306Z,64.87
2018-11-22T12:25:10.594Z,57.77
2018-11-22T12:27:39.854Z,57.33
2018-11-22T12:30:14.938Z,60.80
2018-11-22T12:34:54.597Z,57.67
2018-11-22T12:37:28.342Z,55.07
2018-11-22T12:39:57.027Z,63.10
2018-11-22T12:42:25.457Z,63.43
2018-11-22T12:44:58.121Z,50.67
2018-11-22T12:47:26.545Z,61.73
2018-11-22T12:49:55.210Z,61.20
2018-11-22T12:52:23.935Z,56.17
2018-11-22T12:54:52.416Z,60.50
2018-11-22T12:57:20.795Z,60.97
2018-11-22T12:59:49.157Z,60.17
2018-11-22T13:02:18.745Z,53.07
2018-11-22T13:04:47.269Z,54.43
2018-11-22T13:07:15.867Z,56.53
2018-11-22T13:09:44.266Z,56.63
2018-11-22T13:12:12.813Z,53.93
2018-11-22T13:14:41.220Z,58.37
2018-11-22T13:17:09.992Z,56.83
2018-11-22T13:19:38.750Z,59.63
2018-11-22T13:22:08.113Z,56.00
2018-11-22T13:24:36.701Z,55.07
2018-11-22T13:27:05.300Z,59.97
2018-11-22T13:29:34.054Z,59.43
2018-11-22T13:32:02.470Z,56.23
2018-11-22T13:34:30.867Z,48.07
2018-11-22T13:36:59.559Z,56.13
2018-11-22T13:39:28.278Z,59.13
2018-11-22T13:41:56.955Z,51.70
2018-11-22T13:44:25.392Z,54.77
2018-11-22T13:46:53.807Z,59.57
2018-11-22T13:49:22.197Z,59.93
2018-11-22T13:51:51.193Z,59.13
2018-11-22T13:54:20.372Z,52.17
2018-11-22T13:56:49.174Z,53.03
2018-11-22T13:59:17.946Z,58.87
2018-11-22T14:01:46.393Z,56.33
2018-11-22T14:04:14.854Z,57.73
2018-11-22T14:06:43.312Z,53.07
2018-11-22T14:09:11.997Z,61.90
2018-11-22T14:11:40.529Z,66.70
2018-11-22T14:14:09.045Z,57.50
2018-11-22T14:16:37.452Z,58.57
2018-11-22T14:19:06.770Z,59.20
2018-11-22T14:21:35.822Z,62.10
2018-11-22T14:24:04.324Z,61.40
2018-11-22T14:26:33.897Z,59.53
2018-11-22T14:29:02.287Z,64.43
2018-11-22T14:31:30.778Z,54.33
2018-11-22T14:33:59.222Z,58.00
2018-11-22T14:36:27.919Z,56.93
2018-11-22T14:38:56.555Z,52.93
2018-11-22T14:41:24.977Z,56.23
2018-11-22T14:43:53.637Z,57.70
2018-11-22T14:46:22.182Z,53.23
2018-11-22T14:48:50.782Z,60.33
2018-11-22T14:51:24.264Z,60.17
2018-11-22T14:53:52.676Z,54.03
2018-11-22T14:56:21.078Z,60.90
2018-11-22T14:58:49.501Z,59.93
2018-11-22T15:01:18.001Z,56.50
2018-11-22T15:03:46.454Z,63.20
2018-11-22T15:06:14.843Z,57.03
2018-11-22T15:08:43.442Z,57.90
2018-11-22T15:11:12.045Z,58.33
2018-11-22T15:13:40.681Z,55.50
2018-11-22T15:16:09.429Z,61.87
2018-11-22T15:18:38.403Z,61.40
2018-11-22T15:21:06.813Z,58.80
2018-11-22T15:23:35.397Z,59.57
2018-11-22T15:26:03.848Z,56.17
2018-11-22T15:28:32.367Z,53.27
2018-11-22T15:31:01.091Z,58.27
2018-11-22T15:33:29.517Z,51.90
2018-11-22T15:35:58.161Z,63.93
2018-11-22T15:38:26.965Z,55.60
2018-11-22T15:40:55.426Z,58.30
2018-11-22T15:43:24.056Z,55.07
2018-11-22T15:45:52.460Z,62.23
2018-11-22T15:48:20.870Z,63.33
2018-11-22T15:50:49.531Z,60.60
2018-11-22T15:53:17.748Z,61.77
2018-11-22T15:55:46.205Z,56.53
2018-11-22T15:58:14.934Z,59.57
2018-11-22T16:00:43.371Z,59.00
2018-11-22T16:03:12.406Z,60.80
2018-11-22T16:05:40.808Z,62.03
2018-11-22T16:08:09.240Z,59.97
2018-11-22T16:10:38.049Z,63.30
2018-11-22T16:13:09.921Z,57.67
2018-11-22T16:15:45.790Z,50.53
2018-11-22T16:18:14.218Z,58.23
2018-11-22T16:20:42.629Z,63.17
2018-11-22T16:23:11.125Z,61.17
2018-11-22T16:25:39.763Z,54.07
2018-11-22T16:28:08.095Z,58.07
2018-11-22T16:30:37.130Z,57.43
2018-11-22T16:33:05.770Z,58.07
2018-11-22T16:35:34.926Z,60.90
2018-11-22T16:38:03.572Z,54.37
2018-11-22T16:40:32.014Z,61.63
2018-11-22T16:43:01.791Z,59.00
2018-11-22T16:45:31.380Z,63.60
2018-11-22T16:48:01.299Z,57.60
2018-11-22T16:50:30.718Z,65.87
2018-11-22T16:52:59.117Z,62.90
2018-11-22T16:55:27.997Z,73.03
2018-11-22T16:57:57.786Z,63.27
2018-11-22T17:00:27.767Z,66.37
2018-11-22T17:02:57.562Z,63.70
2018-11-22T17:05:26.118Z,68.45
2018-11-22T17:07:54.580Z,60.27
2018-11-22T17:10:24.290Z,59.63
2018-11-22T17:12:54.106Z,60.20
2018-11-22T17:15:23.746Z,66.20
2018-11-22T17:17:52.709Z,60.27
2018-11-22T17:20:22.062Z,57.53
2018-11-22T17:22:51.176Z,61.80
2018-11-22T17:25:23.878Z,66.60
2018-11-22T17:27:53.710Z,62.83
2018-11-22T17:30:23.724Z,59.77
2018-11-22T17:32:52.185Z,55.13
2018-11-22T17:35:21.896Z,65.30
2018-11-22T17:37:50.653Z,57.90
2018-11-22T17:40:21.933Z,58.37
2018-11-22T17:42:50.419Z,61.40
2018-11-22T17:45:32.169Z,60.03
2018-11-22T17:48:00.784Z,55.00
2018-11-22T17:50:32.037Z,61.47
2018-11-22T17:53:00.768Z,56.50
2018-11-22T17:55:30.090Z,60.97
2018-11-22T17:57:58.535Z,62.03
2018-11-22T18:00:28.121Z,56.63
2018-11-22T18:02:57.856Z,60.07
2018-11-22T18:05:27.371Z,58.83
2018-11-22T18:07:54.724Z,51.93
2018-11-22T18:10:25.636Z,55.60
2018-11-22T18:12:54.711Z,57.00
2018-11-22T18:15:23.816Z,63.53
2018-11-22T18:17:52.886Z,59.07
2018-11-22T18:20:24.461Z,57.90
2018-11-22T18:22:53.923Z,55.40
2018-11-22T18:25:23.772Z,59.50
2018-11-22T18:27:52.195Z,58.27
2018-11-22T18:30:26.060Z,53.57
2018-11-22T18:32:55.849Z,57.67
2018-11-22T18:35:24.321Z,60.90
2018-11-22T18:37:53.393Z,59.97
2018-11-22T18:40:23.040Z,65.97
2018-11-22T18:42:53.204Z,58.83
2018-11-22T18:45:30.189Z,57.23
2018-11-22T18:47:58.906Z,60.47
2018-11-22T18:50:28.271Z,60.93
2018-11-22T18:52:56.807Z,62.90
2018-11-22T18:55:25.175Z,64.67
2018-11-22T18:57:54.130Z,63.80
2018-11-22T19:00:27.364Z,61.60
2018-11-22T19:02:58.105Z,58.73
2018-11-22T19:05:27.281Z,65.13
2018-11-22T19:07:56.637Z,57.17
2018-11-22T19:10:28.362Z,61.87
2018-11-22T19:12:58.184Z,58.80
2018-11-22T19:15:27.797Z,56.10
2018-11-22T19:17:56.586Z,60.73
2018-11-22T19:20:27.322Z,62.67
2018-11-22T19:22:56.922Z,62.30
2018-11-22T19:25:25.340Z,55.13
2018-11-22T19:27:54.379Z,55.93
2018-11-22T19:30:29.042Z,58.53
2018-11-22T19:32:58.844Z,56.50
2018-11-22T19:35:28.635Z,56.13
2018-11-22T19:37:57.103Z,61.63
2018-11-22T19:40:27.901Z,54.90
2018-11-22T19:42:57.543Z,56.00
2018-11-22T19:45:27.467Z,57.23
2018-11-22T19:47:55.933Z,58.73
2018-11-22T19:50:25.574Z,49.80
2018-11-22T19:52:54.670Z,51.53
2018-11-22T19:55:25.485Z,52.97
2018-11-22T19:57:55.101Z,56.83
2018-11-22T20:00:24.243Z,58.47
2018-11-22T20:02:53.814Z,57.90
2018-11-22T20:05:24.950Z,54.77
2018-11-22T20:07:55.045Z,55.60
2018-11-22T20:10:25.994Z,53.80
2018-11-22T20:12:55.030Z,44.30
2018-11-22T20:15:23.618Z,51.47
2018-11-22T20:17:52.766Z,50.17
2018-11-22T20:20:21.962Z,54.90
2018-11-22T20:22:50.756Z,58.20
2018-11-22T20:25:19.153Z,60.43
2018-11-22T20:27:48.030Z,56.20
2018-11-22T20:30:21.282Z,59.00
2018-11-22T20:32:49.843Z,49.33
2018-11-22T20:35:19.099Z,51.37
2018-11-22T20:37:48.366Z,49.17
2018-11-22T20:40:18.904Z,47.90
2018-11-22T20:42:47.534Z,52.00
2018-11-22T20:45:17.933Z,52.07
2018-11-22T20:47:47.537Z,48.77
2018-11-22T20:50:17.429Z,49.23
2018-11-22T20:52:45.945Z,47.30
2018-11-22T20:55:19.945Z,49.57
2018-11-22T20:57:50.496Z,50.17
2018-11-22T21:00:22.060Z,52.13
2018-11-22T21:02:50.464Z,50.57
2018-11-22T21:05:19.611Z,47.17
2018-11-22T21:07:48.052Z,43.17
2018-11-22T21:10:18.089Z,50.43
2018-11-22T21:12:46.519Z,45.33
2018-11-22T21:15:17.261Z,46.10
2018-11-22T21:17:46.403Z,43.70
2018-11-22T21:20:16.127Z,41.07
2018-11-22T21:22:44.621Z,44.00
2018-11-22T21:25:15.130Z,49.40
2018-11-22T21:27:43.645Z,44.10
2018-11-22T21:30:15.263Z,47.67
2018-11-22T21:32:44.300Z,47.63
2018-11-22T21:35:14.578Z,47.40
2018-11-22T21:37:44.159Z,47.60
2018-11-22T21:40:14.790Z,48.83
2018-11-22T21:42:43.843Z,43.90
2018-11-22T21:45:14.640Z,45.87
2018-11-22T21:47:43.764Z,41.77
2018-11-22T21:50:13.676Z,49.17
2018-11-22T21:52:42.039Z,42.13
2018-11-22T21:55:18.716Z,44.60
2018-11-22T21:57:48.226Z,45.03
2018-11-22T22:00:31.266Z,41.90
2018-11-22T22:03:02.201Z,46.13
2018-11-22T22:05:31.057Z,42.10
2018-11-22T22:07:59.657Z,43.30
2018-11-22T22:10:28.276Z,46.73
2018-11-22T22:12:57.020Z,43.60
2018-11-22T22:15:26.912Z,50.60
2018-11-22T22:17:55.324Z,41.43
2018-11-22T22:20:25.443Z,45.77
2018-11-22T22:22:53.924Z,41.33
2018-11-22T22:25:23.354Z,44.60
2018-11-22T22:27:52.305Z,39.57
2018-11-22T22:30:24.045Z,40.30
2018-11-22T22:32:53.536Z,42.30
2018-11-22T22:35:23.046Z,44.40
2018-11-22T22:37:51.523Z,39.17
2018-11-22T22:40:21.263Z,41.73
2018-11-22T22:42:50.769Z,44.57
2018-11-22T22:45:20.281Z,39.10
2018-11-22T22:47:49.270Z,35.47
2018-11-22T22:50:20.087Z,42.70
2018-11-22T22:52:49.685Z,47.80
2018-11-22T22:55:18.091Z,43.47
2018-11-22T22:57:46.894Z,39.63
2018-11-22T23:00:22.812Z,38.93
2018-11-22T23:02:52.397Z,42.37
2018-11-22T23:05:21.522Z,41.80
2018-11-22T23:07:50.088Z,40.83
2018-11-22T23:10:19.189Z,42.33
2018-11-22T23:12:47.844Z,39.67
2018-11-22T23:15:17.380Z,39.67
2018-11-22T23:17:45.865Z,37.97
2018-11-22T23:20:16.781Z,43.57
2018-11-22T23:22:45.879Z,37.10
2018-11-22T23:25:15.028Z,35.20
2018-11-22T23:27:43.395Z,36.83
2018-11-22T23:30:22.083Z,41.07
2018-11-22T23:32:52.745Z,47.03
2018-11-22T23:35:21.275Z,42.43
2018-11-22T23:37:50.083Z,43.50
2018-11-22T23:40:19.632Z,45.17
2018-11-22T23:42:48.040Z,39.47
2018-11-22T23:45:18.206Z,38.40
2018-11-22T23:47:50.237Z,38.40
2018-11-22T23:50:23.806Z,36.13
2018-11-22T23:52:53.712Z,39.47
2018-11-22T23:55:22.368Z,39.77
2018-11-22T23:57:51.475Z,42.73
